sensor_id;sensor_type;location;lat;lon;timestamp;pressure;altitude;pressure_sealevel;temperature;humidity
55424;BME280;41294;42.666;23.350;2024-02-21T00:00:39;95554.25;;;7.36;88.97
55424;BME280;41294;42.666;23.350;2024-02-21T00:03:05;95538.78;;;7.42;88.48
55424;BME280;41294;42.666;23.350;2024-02-21T00:05:31;95544.00;;;7.45;87.89
55424;BME280;41294;42.666;23.350;2024-02-21T00:07:58;95540.41;;;7.36;88.29
55424;BME280;41294;42.666;23.350;2024-02-21T00:10:24;95538.47;;;7.40;88.15
55424;BME280;41294;42.666;23.350;2024-02-21T00:12:51;95545.97;;;7.38;88.28
55424;BME280;41294;42.666;23.350;2024-02-21T00:15:16;95541.88;;;7.37;88.46
55424;BME280;41294;42.666;23.350;2024-02-21T00:17:43;95544.50;;;7.37;88.32
55424;BME280;41294;42.666;23.350;2024-02-21T00:20:09;95536.31;;;7.35;88.54
55424;BME280;41294;42.666;23.350;2024-02-21T00:22:35;95537.00;;;7.39;88.14
55424;BME280;41294;42.666;23.350;2024-02-21T00:25:01;95536.09;;;7.26;88.52
55424;BME280;41294;42.666;23.350;2024-02-21T00:27:26;95538.69;;;7.26;88.86
55424;BME280;41294;42.666;23.350;2024-02-21T00:29:52;95529.25;;;7.32;88.39
55424;BME280;41294;42.666;23.350;2024-02-21T00:32:17;95535.50;;;7.38;88.04
55424;BME280;41294;42.666;23.350;2024-02-21T00:34:43;95534.03;;;7.37;88.41
55424;BME280;41294;42.666;23.350;2024-02-21T00:37:09;95541.59;;;7.32;88.54
55424;BME280;41294;42.666;23.350;2024-02-21T00:39:34;95531.06;;;7.35;88.33
55424;BME280;41294;42.666;23.350;2024-02-21T00:42:00;95533.22;;;7.40;87.84
55424;BME280;41294;42.666;23.350;2024-02-21T00:44:26;95529.78;;;7.24;88.58
55424;BME280;41294;42.666;23.350;2024-02-21T00:46:51;95525.16;;;7.31;88.24
55424;BME280;41294;42.666;23.350;2024-02-21T00:49:18;95521.06;;;7.30;88.54
55424;BME280;41294;42.666;23.350;2024-02-21T00:51:43;95522.28;;;7.26;88.89
55424;BME280;41294;42.666;23.350;2024-02-21T00:54:09;95521.84;;;7.27;88.53
55424;BME280;41294;42.666;23.350;2024-02-21T00:56:34;95522.34;;;7.22;88.82
55424;BME280;41294;42.666;23.350;2024-02-21T00:59:00;95523.81;;;7.23;88.87
55424;BME280;41294;42.666;23.350;2024-02-21T01:01:25;95520.84;;;7.21;89.16
55424;BME280;41294;42.666;23.350;2024-02-21T01:03:51;95520.91;;;7.18;89.65
55424;BME280;41294;42.666;23.350;2024-02-21T01:06:20;95514.25;;;7.13;89.43
55424;BME280;41294;42.666;23.350;2024-02-21T01:08:48;95506.28;;;7.20;89.19
55424;BME280;41294;42.666;23.350;2024-02-21T01:11:14;95504.13;;;7.15;89.44
55424;BME280;41294;42.666;23.350;2024-02-21T01:13:40;95502.38;;;7.09;90.23
55424;BME280;41294;42.666;23.350;2024-02-21T01:16:05;95505.28;;;7.14;89.71
55424;BME280;41294;42.666;23.350;2024-02-21T01:18:33;95500.03;;;7.14;89.51
55424;BME280;41294;42.666;23.350;2024-02-21T01:20:58;95495.19;;;7.13;89.65
55424;BME280;41294;42.666;23.350;2024-02-21T01:23:24;95493.19;;;7.20;89.72
55424;BME280;41294;42.666;23.350;2024-02-21T01:25:50;95496.47;;;7.24;89.00
55424;BME280;41294;42.666;23.350;2024-02-21T01:28:16;95488.75;;;7.17;89.86
55424;BME280;41294;42.666;23.350;2024-02-21T01:30:41;95493.91;;;7.21;89.32
55424;BME280;41294;42.666;23.350;2024-02-21T01:33:07;95496.09;;;7.26;89.19
55424;BME280;41294;42.666;23.350;2024-02-21T01:35:32;95488.75;;;7.17;89.45
55424;BME280;41294;42.666;23.350;2024-02-21T01:37:58;95481.94;;;7.23;88.95
55424;BME280;41294;42.666;23.350;2024-02-21T01:40:23;95490.16;;;7.22;88.93
55424;BME280;41294;42.666;23.350;2024-02-21T01:42:49;95483.84;;;7.19;88.68
55424;BME280;41294;42.666;23.350;2024-02-21T01:45:14;95472.25;;;7.20;88.96
55424;BME280;41294;42.666;23.350;2024-02-21T01:47:40;95478.75;;;7.12;88.96
55424;BME280;41294;42.666;23.350;2024-02-21T01:50:06;95477.84;;;6.99;89.42
55424;BME280;41294;42.666;23.350;2024-02-21T01:52:33;95478.41;;;7.10;89.42
55424;BME280;41294;42.666;23.350;2024-02-21T01:55:00;95472.09;;;7.08;88.89
55424;BME280;41294;42.666;23.350;2024-02-21T01:57:26;95476.13;;;7.12;88.38
55424;BME280;41294;42.666;23.350;2024-02-21T01:59:53;95474.13;;;7.20;88.47
55424;BME280;41294;42.666;23.350;2024-02-21T02:02:19;95472.97;;;7.21;87.57
55424;BME280;41294;42.666;23.350;2024-02-21T02:04:45;95470.25;;;7.28;87.43
55424;BME280;41294;42.666;23.350;2024-02-21T02:07:11;95474.28;;;7.32;87.15
55424;BME280;41294;42.666;23.350;2024-02-21T02:09:36;95466.75;;;7.34;86.25
55424;BME280;41294;42.666;23.350;2024-02-21T02:12:02;95474.22;;;7.35;86.28
55424;BME280;41294;42.666;23.350;2024-02-21T02:14:28;95477.56;;;7.36;85.97
55424;BME280;41294;42.666;23.350;2024-02-21T02:16:53;95471.25;;;7.33;86.09
55424;BME280;41294;42.666;23.350;2024-02-21T02:19:19;95470.13;;;7.34;86.17
55424;BME280;41294;42.666;23.350;2024-02-21T02:21:50;95474.31;;;7.29;86.32
55424;BME280;41294;42.666;23.350;2024-02-21T02:24:22;95468.28;;;7.32;87.03
55424;BME280;41294;42.666;23.350;2024-02-21T02:26:49;95466.63;;;7.41;86.18
55424;BME280;41294;42.666;23.350;2024-02-21T02:29:14;95459.50;;;7.41;85.88
55424;BME280;41294;42.666;23.350;2024-02-21T02:31:40;95464.66;;;7.45;85.90
55424;BME280;41294;42.666;23.350;2024-02-21T02:34:05;95462.13;;;7.41;85.91
55424;BME280;41294;42.666;23.350;2024-02-21T02:36:35;95454.78;;;7.33;86.52
55424;BME280;41294;42.666;23.350;2024-02-21T02:39:01;95462.63;;;7.33;86.34
55424;BME280;41294;42.666;23.350;2024-02-21T02:41:26;95458.38;;;7.23;86.86
55424;BME280;41294;42.666;23.350;2024-02-21T02:43:52;95453.66;;;7.34;86.59
55424;BME280;41294;42.666;23.350;2024-02-21T02:46:17;95454.06;;;7.32;86.89
55424;BME280;41294;42.666;23.350;2024-02-21T02:48:42;95454.84;;;7.30;86.47
55424;BME280;41294;42.666;23.350;2024-02-21T02:51:08;95459.38;;;7.29;86.24
55424;BME280;41294;42.666;23.350;2024-02-21T02:53:33;95462.31;;;7.31;86.30
55424;BME280;41294;42.666;23.350;2024-02-21T02:55:59;95464.94;;;7.31;86.54
55424;BME280;41294;42.666;23.350;2024-02-21T02:58:24;95466.66;;;7.37;86.55
55424;BME280;41294;42.666;23.350;2024-02-21T03:00:50;95460.56;;;7.44;86.25
55424;BME280;41294;42.666;23.350;2024-02-21T03:03:15;95460.41;;;7.51;85.79
55424;BME280;41294;42.666;23.350;2024-02-21T03:05:41;95467.28;;;7.45;86.09
55424;BME280;41294;42.666;23.350;2024-02-21T03:08:06;95467.44;;;7.38;86.29
55424;BME280;41294;42.666;23.350;2024-02-21T03:10:33;95471.88;;;7.41;86.16
55424;BME280;41294;42.666;23.350;2024-02-21T03:12:58;95464.31;;;7.43;86.39
55424;BME280;41294;42.666;23.350;2024-02-21T03:15:24;95471.25;;;7.33;86.74
55424;BME280;41294;42.666;23.350;2024-02-21T03:17:49;95480.84;;;7.40;86.64
55424;BME280;41294;42.666;23.350;2024-02-21T03:20:15;95485.06;;;7.34;86.46
55424;BME280;41294;42.666;23.350;2024-02-21T03:22:41;95480.94;;;7.36;86.75
55424;BME280;41294;42.666;23.350;2024-02-21T03:25:08;95487.88;;;7.43;86.04
55424;BME280;41294;42.666;23.350;2024-02-21T03:27:34;95481.16;;;7.42;85.80
55424;BME280;41294;42.666;23.350;2024-02-21T03:29:59;95482.78;;;7.36;86.78
55424;BME280;41294;42.666;23.350;2024-02-21T03:32:25;95474.78;;;7.43;85.79
55424;BME280;41294;42.666;23.350;2024-02-21T03:34:50;95477.97;;;7.54;85.78
55424;BME280;41294;42.666;23.350;2024-02-21T03:37:16;95479.50;;;7.51;85.34
55424;BME280;41294;42.666;23.350;2024-02-21T03:39:41;95496.44;;;7.47;85.43
55424;BME280;41294;42.666;23.350;2024-02-21T03:42:07;95491.06;;;7.54;85.34
55424;BME280;41294;42.666;23.350;2024-02-21T03:44:32;95494.88;;;7.49;85.61
55424;BME280;41294;42.666;23.350;2024-02-21T03:47:01;95487.03;;;7.49;85.46
55424;BME280;41294;42.666;23.350;2024-02-21T03:49:27;95497.69;;;7.58;85.58
55424;BME280;41294;42.666;23.350;2024-02-21T03:51:52;95496.63;;;7.56;85.42
55424;BME280;41294;42.666;23.350;2024-02-21T03:54:18;95497.84;;;7.51;85.46
55424;BME280;41294;42.666;23.350;2024-02-21T03:56:43;95490.13;;;7.44;85.67
55424;BME280;41294;42.666;23.350;2024-02-21T03:59:09;95497.63;;;7.42;85.50
55424;BME280;41294;42.666;23.350;2024-02-21T04:01:35;95490.91;;;7.41;86.14
55424;BME280;41294;42.666;23.350;2024-02-21T04:04:01;95490.56;;;7.39;85.79
55424;BME280;41294;42.666;23.350;2024-02-21T04:06:26;95492.00;;;7.44;85.80
55424;BME280;41294;42.666;23.350;2024-02-21T04:08:52;95501.81;;;7.40;86.08
55424;BME280;41294;42.666;23.350;2024-02-21T04:11:17;95491.34;;;7.40;86.15
55424;BME280;41294;42.666;23.350;2024-02-21T04:13:44;95489.03;;;7.42;85.89
55424;BME280;41294;42.666;23.350;2024-02-21T04:16:10;95485.28;;;7.43;86.06
55424;BME280;41294;42.666;23.350;2024-02-21T04:18:35;95492.00;;;7.25;86.27
55424;BME280;41294;42.666;23.350;2024-02-21T04:21:01;95493.00;;;7.31;86.15
55424;BME280;41294;42.666;23.350;2024-02-21T04:23:26;95490.44;;;7.27;86.51
55424;BME280;41294;42.666;23.350;2024-02-21T04:25:53;95498.16;;;7.34;86.12
55424;BME280;41294;42.666;23.350;2024-02-21T04:28:19;95496.63;;;7.36;85.83
55424;BME280;41294;42.666;23.350;2024-02-21T04:30:44;95494.41;;;7.35;86.09
55424;BME280;41294;42.666;23.350;2024-02-21T04:33:10;95492.94;;;7.34;85.48
55424;BME280;41294;42.666;23.350;2024-02-21T04:35:38;95489.78;;;7.23;85.98
55424;BME280;41294;42.666;23.350;2024-02-21T04:38:04;95487.75;;;7.31;85.73
55424;BME280;41294;42.666;23.350;2024-02-21T04:40:30;95481.72;;;7.33;85.05
55424;BME280;41294;42.666;23.350;2024-02-21T04:42:57;95498.44;;;7.20;86.06
55424;BME280;41294;42.666;23.350;2024-02-21T04:45:22;95492.00;;;7.25;85.76
55424;BME280;41294;42.666;23.350;2024-02-21T04:47:48;95486.59;;;7.12;86.67
55424;BME280;41294;42.666;23.350;2024-02-21T04:50:13;95488.81;;;7.14;86.81
55424;BME280;41294;42.666;23.350;2024-02-21T04:52:39;95491.78;;;7.16;86.38
55424;BME280;41294;42.666;23.350;2024-02-21T04:55:04;95495.53;;;7.15;86.39
55424;BME280;41294;42.666;23.350;2024-02-21T04:57:31;95490.78;;;7.10;86.98
55424;BME280;41294;42.666;23.350;2024-02-21T04:59:56;95487.59;;;6.99;87.29
55424;BME280;41294;42.666;23.350;2024-02-21T05:02:22;95485.69;;;6.99;87.50
55424;BME280;41294;42.666;23.350;2024-02-21T05:04:49;95484.97;;;6.99;87.62
55424;BME280;41294;42.666;23.350;2024-02-21T05:07:15;95490.94;;;6.99;87.28
55424;BME280;41294;42.666;23.350;2024-02-21T05:09:42;95495.09;;;6.97;87.42
55424;BME280;41294;42.666;23.350;2024-02-21T05:12:08;95491.06;;;6.92;87.45
55424;BME280;41294;42.666;23.350;2024-02-21T05:14:33;95491.75;;;6.96;87.33
55424;BME280;41294;42.666;23.350;2024-02-21T05:16:59;95498.69;;;6.83;87.76
55424;BME280;41294;42.666;23.350;2024-02-21T05:19:24;95505.00;;;6.86;88.21
55424;BME280;41294;42.666;23.350;2024-02-21T05:21:50;95504.28;;;6.85;88.25
55424;BME280;41294;42.666;23.350;2024-02-21T05:24:15;95500.28;;;6.77;88.71
55424;BME280;41294;42.666;23.350;2024-02-21T05:26:41;95502.00;;;6.87;88.21
55424;BME280;41294;42.666;23.350;2024-02-21T05:29:06;95511.59;;;6.94;87.89
55424;BME280;41294;42.666;23.350;2024-02-21T05:34:16;95508.03;;;6.84;88.45
55424;BME280;41294;42.666;23.350;2024-02-21T05:36:41;95503.25;;;6.79;88.46
55424;BME280;41294;42.666;23.350;2024-02-21T05:39:06;95511.09;;;6.79;88.91
55424;BME280;41294;42.666;23.350;2024-02-21T05:41:32;95507.78;;;6.98;88.18
55424;BME280;41294;42.666;23.350;2024-02-21T05:43:57;95509.81;;;7.10;87.32
55424;BME280;41294;42.666;23.350;2024-02-21T05:46:23;95512.22;;;7.01;87.65
55424;BME280;41294;42.666;23.350;2024-02-21T05:48:48;95515.53;;;7.05;87.50
55424;BME280;41294;42.666;23.350;2024-02-21T05:51:14;95513.63;;;7.06;86.96
55424;BME280;41294;42.666;23.350;2024-02-21T05:53:40;95513.84;;;7.15;87.12
55424;BME280;41294;42.666;23.350;2024-02-21T05:56:10;95517.16;;;7.19;87.05
55424;BME280;41294;42.666;23.350;2024-02-21T05:58:36;95523.28;;;7.32;86.01
55424;BME280;41294;42.666;23.350;2024-02-21T06:01:02;95532.53;;;7.36;85.54
55424;BME280;41294;42.666;23.350;2024-02-21T06:03:29;95524.25;;;7.41;85.62
55424;BME280;41294;42.666;23.350;2024-02-21T06:05:54;95525.25;;;7.47;85.07
55424;BME280;41294;42.666;23.350;2024-02-21T06:08:20;95523.56;;;7.37;85.06
55424;BME280;41294;42.666;23.350;2024-02-21T06:10:46;95524.84;;;7.48;84.66
55424;BME280;41294;42.666;23.350;2024-02-21T06:13:11;95537.91;;;7.68;83.45
55424;BME280;41294;42.666;23.350;2024-02-21T06:15:37;95533.41;;;7.88;82.49
55424;BME280;41294;42.666;23.350;2024-02-21T06:18:02;95540.25;;;8.01;80.98
55424;BME280;41294;42.666;23.350;2024-02-21T06:20:28;95541.44;;;8.35;78.74
55424;BME280;41294;42.666;23.350;2024-02-21T06:22:54;95534.81;;;8.47;78.51
55424;BME280;41294;42.666;23.350;2024-02-21T06:25:19;95538.19;;;8.63;78.22
55424;BME280;41294;42.666;23.350;2024-02-21T06:27:45;95546.06;;;8.79;78.04
55424;BME280;41294;42.666;23.350;2024-02-21T06:30:10;95544.56;;;9.10;75.78
55424;BME280;41294;42.666;23.350;2024-02-21T06:32:36;95549.00;;;9.13;75.85
55424;BME280;41294;42.666;23.350;2024-02-21T06:35:01;95543.47;;;10.08;73.38
55424;BME280;41294;42.666;23.350;2024-02-21T06:37:27;95554.47;;;10.69;70.49
55424;BME280;41294;42.666;23.350;2024-02-21T06:39:53;95546.34;;;10.39;70.52
55424;BME280;41294;42.666;23.350;2024-02-21T06:42:18;95553.50;;;10.13;71.09
55424;BME280;41294;42.666;23.350;2024-02-21T06:44:44;95553.47;;;9.73;72.33
55424;BME280;41294;42.666;23.350;2024-02-21T06:47:10;95560.84;;;9.78;72.18
55424;BME280;41294;42.666;23.350;2024-02-21T06:49:35;95567.88;;;9.80;71.55
55424;BME280;41294;42.666;23.350;2024-02-21T06:52:04;95563.16;;;9.76;71.71
55424;BME280;41294;42.666;23.350;2024-02-21T06:54:30;95562.81;;;9.74;71.97
55424;BME280;41294;42.666;23.350;2024-02-21T06:56:56;95577.34;;;9.78;71.70
55424;BME280;41294;42.666;23.350;2024-02-21T06:59:22;95574.41;;;9.76;71.89
55424;BME280;41294;42.666;23.350;2024-02-21T07:01:54;95571.63;;;9.67;72.01
55424;BME280;41294;42.666;23.350;2024-02-21T07:04:23;95563.88;;;9.76;72.17
55424;BME280;41294;42.666;23.350;2024-02-21T07:06:48;95558.88;;;9.94;71.45
55424;BME280;41294;42.666;23.350;2024-02-21T07:09:14;95565.16;;;10.00;70.94
55424;BME280;41294;42.666;23.350;2024-02-21T07:11:39;95566.00;;;10.09;71.19
55424;BME280;41294;42.666;23.350;2024-02-21T07:14:05;95561.81;;;10.24;70.32
55424;BME280;41294;42.666;23.350;2024-02-21T07:16:30;95564.97;;;10.19;70.58
55424;BME280;41294;42.666;23.350;2024-02-21T07:18:57;95574.72;;;10.06;70.85
55424;BME280;41294;42.666;23.350;2024-02-21T07:21:23;95573.56;;;10.07;70.89
55424;BME280;41294;42.666;23.350;2024-02-21T07:23:48;95567.78;;;10.00;71.04
55424;BME280;41294;42.666;23.350;2024-02-21T07:26:14;95578.34;;;9.96;71.58
55424;BME280;41294;42.666;23.350;2024-02-21T07:28:39;95576.91;;;9.95;71.69
55424;BME280;41294;42.666;23.350;2024-02-21T07:31:05;95581.41;;;9.95;71.70
55424;BME280;41294;42.666;23.350;2024-02-21T07:33:30;95576.06;;;9.98;72.23
55424;BME280;41294;42.666;23.350;2024-02-21T07:35:56;95578.06;;;9.78;71.94
55424;BME280;41294;42.666;23.350;2024-02-21T07:38:22;95572.81;;;9.78;72.53
55424;BME280;41294;42.666;23.350;2024-02-21T07:40:47;95578.16;;;9.91;72.40
55424;BME280;41294;42.666;23.350;2024-02-21T07:43:13;95575.91;;;9.89;72.21
55424;BME280;41294;42.666;23.350;2024-02-21T07:45:39;95573.09;;;9.96;72.18
55424;BME280;41294;42.666;23.350;2024-02-21T07:48:05;95580.41;;;10.05;71.98
55424;BME280;41294;42.666;23.350;2024-02-21T07:50:31;95583.59;;;9.96;71.97
55424;BME280;41294;42.666;23.350;2024-02-21T07:52:57;95570.53;;;10.09;71.37
55424;BME280;41294;42.666;23.350;2024-02-21T07:55:22;95571.25;;;10.09;71.77
55424;BME280;41294;42.666;23.350;2024-02-21T07:57:49;95572.97;;;10.16;71.35
55424;BME280;41294;42.666;23.350;2024-02-21T08:00:15;95566.81;;;10.06;71.55
55424;BME280;41294;42.666;23.350;2024-02-21T08:02:45;95564.97;;;10.19;71.30
55424;BME280;41294;42.666;23.350;2024-02-21T08:05:11;95559.16;;;10.12;71.31
55424;BME280;41294;42.666;23.350;2024-02-21T08:07:37;95564.53;;;10.08;71.48
55424;BME280;41294;42.666;23.350;2024-02-21T08:10:04;95566.81;;;10.06;71.41
55424;BME280;41294;42.666;23.350;2024-02-21T08:12:29;95560.34;;;10.23;70.74
55424;BME280;41294;42.666;23.350;2024-02-21T08:14:55;95562.69;;;10.46;69.93
55424;BME280;41294;42.666;23.350;2024-02-21T08:17:20;95567.19;;;10.46;70.48
55424;BME280;41294;42.666;23.350;2024-02-21T08:19:46;95562.16;;;10.51;69.71
55424;BME280;41294;42.666;23.350;2024-02-21T08:22:13;95563.38;;;10.22;70.00
55424;BME280;41294;42.666;23.350;2024-02-21T08:24:38;95559.41;;;10.55;69.94
55424;BME280;41294;42.666;23.350;2024-02-21T08:27:04;95551.59;;;10.88;68.67
55424;BME280;41294;42.666;23.350;2024-02-21T08:29:30;95558.47;;;11.32;65.83
55424;BME280;41294;42.666;23.350;2024-02-21T08:31:56;95565.78;;;11.62;65.89
55424;BME280;41294;42.666;23.350;2024-02-21T08:34:21;95564.25;;;12.46;62.54
55424;BME280;41294;42.666;23.350;2024-02-21T08:36:46;95559.19;;;12.61;60.91
55424;BME280;41294;42.666;23.350;2024-02-21T08:39:12;95563.44;;;12.28;61.23
55424;BME280;41294;42.666;23.350;2024-02-21T08:41:42;95558.28;;;12.55;60.57
55424;BME280;41294;42.666;23.350;2024-02-21T08:44:07;95554.97;;;12.63;59.51
55424;BME280;41294;42.666;23.350;2024-02-21T08:46:33;95554.38;;;12.68;59.29
55424;BME280;41294;42.666;23.350;2024-02-21T08:48:58;95561.38;;;12.53;58.87
55424;BME280;41294;42.666;23.350;2024-02-21T08:51:24;95557.06;;;12.47;59.32
55424;BME280;41294;42.666;23.350;2024-02-21T08:53:49;95554.09;;;12.36;59.19
55424;BME280;41294;42.666;23.350;2024-02-21T08:56:15;95563.97;;;12.14;60.41
55424;BME280;41294;42.666;23.350;2024-02-21T08:58:41;95560.56;;;12.14;60.47
55424;BME280;41294;42.666;23.350;2024-02-21T09:01:07;95567.00;;;12.13;61.03
55424;BME280;41294;42.666;23.350;2024-02-21T09:03:38;95556.22;;;12.50;60.01
55424;BME280;41294;42.666;23.350;2024-02-21T09:06:05;95561.47;;;12.41;60.22
55424;BME280;41294;42.666;23.350;2024-02-21T09:08:31;95569.50;;;12.77;58.99
55424;BME280;41294;42.666;23.350;2024-02-21T09:10:57;95572.09;;;12.59;59.35
55424;BME280;41294;42.666;23.350;2024-02-21T09:13:22;95567.16;;;12.39;58.51
55424;BME280;41294;42.666;23.350;2024-02-21T09:15:49;95568.88;;;12.64;58.70
55424;BME280;41294;42.666;23.350;2024-02-21T09:18:15;95573.13;;;12.61;58.42
55424;BME280;41294;42.666;23.350;2024-02-21T09:20:41;95563.13;;;12.56;58.53
55424;BME280;41294;42.666;23.350;2024-02-21T09:23:07;95566.84;;;12.68;58.21
55424;BME280;41294;42.666;23.350;2024-02-21T09:25:32;95565.22;;;12.61;58.95
55424;BME280;41294;42.666;23.350;2024-02-21T09:27:58;95563.25;;;12.53;59.79
55424;BME280;41294;42.666;23.350;2024-02-21T09:30:24;95563.75;;;12.30;59.88
55424;BME280;41294;42.666;23.350;2024-02-21T09:32:49;95568.09;;;12.45;60.09
55424;BME280;41294;42.666;23.350;2024-02-21T09:35:15;95560.25;;;12.42;59.93
55424;BME280;41294;42.666;23.350;2024-02-21T09:37:41;95560.56;;;12.44;60.33
55424;BME280;41294;42.666;23.350;2024-02-21T09:40:06;95555.63;;;12.55;60.01
55424;BME280;41294;42.666;23.350;2024-02-21T09:42:40;95566.50;;;12.57;60.03
55424;BME280;41294;42.666;23.350;2024-02-21T09:45:15;95568.84;;;12.25;61.10
55424;BME280;41294;42.666;23.350;2024-02-21T09:47:52;95565.06;;;12.04;61.70
55424;BME280;41294;42.666;23.350;2024-02-21T09:50:24;95564.06;;;12.32;61.30
55424;BME280;41294;42.666;23.350;2024-02-21T09:52:53;95569.34;;;12.32;60.72
55424;BME280;41294;42.666;23.350;2024-02-21T09:55:20;95558.28;;;12.55;58.99
55424;BME280;41294;42.666;23.350;2024-02-21T09:57:45;95564.84;;;12.81;58.19
55424;BME280;41294;42.666;23.350;2024-02-21T10:00:12;95562.81;;;12.85;58.54
55424;BME280;41294;42.666;23.350;2024-02-21T10:02:39;95559.19;;;12.61;58.71
55424;BME280;41294;42.666;23.350;2024-02-21T10:05:04;95551.28;;;12.70;57.55
55424;BME280;41294;42.666;23.350;2024-02-21T10:07:33;95558.03;;;12.71;56.80
55424;BME280;41294;42.666;23.350;2024-02-21T10:10:04;95552.91;;;13.07;55.87
55424;BME280;41294;42.666;23.350;2024-02-21T10:12:30;95557.84;;;12.96;54.93
55424;BME280;41294;42.666;23.350;2024-02-21T10:15:02;95549.03;;;12.90;55.07
55424;BME280;41294;42.666;23.350;2024-02-21T10:17:27;95550.22;;;12.89;55.05
55424;BME280;41294;42.666;23.350;2024-02-21T10:19:53;95547.47;;;12.71;55.08
55424;BME280;41294;42.666;23.350;2024-02-21T10:22:18;95541.78;;;12.72;55.21
55424;BME280;41294;42.666;23.350;2024-02-21T10:24:46;95538.47;;;12.50;55.92
55424;BME280;41294;42.666;23.350;2024-02-21T10:27:11;95534.78;;;12.48;56.48
55424;BME280;41294;42.666;23.350;2024-02-21T10:29:38;95532.91;;;12.27;56.55
55424;BME280;41294;42.666;23.350;2024-02-21T10:32:08;95528.88;;;12.44;55.93
55424;BME280;41294;42.666;23.350;2024-02-21T10:34:35;95522.44;;;12.45;54.56
55424;BME280;41294;42.666;23.350;2024-02-21T10:37:05;95513.59;;;12.30;54.54
55424;BME280;41294;42.666;23.350;2024-02-21T10:39:39;95500.94;;;12.64;53.74
55424;BME280;41294;42.666;23.350;2024-02-21T10:42:04;95493.19;;;12.70;53.54
55424;BME280;41294;42.666;23.350;2024-02-21T10:44:32;95491.50;;;12.94;53.14
55424;BME280;41294;42.666;23.350;2024-02-21T10:46:58;95488.16;;;13.38;52.31
55424;BME280;41294;42.666;23.350;2024-02-21T10:49:28;95485.66;;;13.43;52.08
55424;BME280;41294;42.666;23.350;2024-02-21T10:52:08;95481.81;;;13.62;51.19
55424;BME280;41294;42.666;23.350;2024-02-21T10:54:47;95476.38;;;13.66;50.54
55424;BME280;41294;42.666;23.350;2024-02-21T10:57:16;95467.09;;;13.88;49.58
55424;BME280;41294;42.666;23.350;2024-02-21T10:59:44;95462.75;;;14.08;48.48
55424;BME280;41294;42.666;23.350;2024-02-21T11:02:10;95462.25;;;14.28;48.66
55424;BME280;41294;42.666;23.350;2024-02-21T11:04:36;95465.44;;;14.73;47.38
55424;BME280;41294;42.666;23.350;2024-02-21T11:07:04;95456.94;;;14.37;48.41
55424;BME280;41294;42.666;23.350;2024-02-21T11:09:31;95449.56;;;14.41;48.64
55424;BME280;41294;42.666;23.350;2024-02-21T11:11:57;95455.16;;;15.36;47.07
55424;BME280;41294;42.666;23.350;2024-02-21T11:14:27;95448.78;;;15.71;45.08
55424;BME280;41294;42.666;23.350;2024-02-21T11:16:53;95455.09;;;15.74;44.76
55424;BME280;41294;42.666;23.350;2024-02-21T11:19:23;95445.31;;;15.80;43.98
55424;BME280;41294;42.666;23.350;2024-02-21T11:21:50;95444.47;;;15.45;44.24
55424;BME280;41294;42.666;23.350;2024-02-21T11:24:46;95452.41;;;15.45;43.40
55424;BME280;41294;42.666;23.350;2024-02-21T11:27:12;95445.03;;;14.88;42.76
55424;BME280;41294;42.666;23.350;2024-02-21T11:30:11;95444.66;;;14.48;43.36
55424;BME280;41294;42.666;23.350;2024-02-21T11:32:37;95437.75;;;14.51;44.28
55424;BME280;41294;42.666;23.350;2024-02-21T11:35:03;95432.44;;;14.51;44.28
55424;BME280;41294;42.666;23.350;2024-02-21T11:37:34;95429.19;;;14.23;45.21
55424;BME280;41294;42.666;23.350;2024-02-21T11:40:02;95437.91;;;14.15;45.30
55424;BME280;41294;42.666;23.350;2024-02-21T11:42:29;95426.94;;;13.81;45.91
55424;BME280;41294;42.666;23.350;2024-02-21T11:44:55;95420.16;;;13.89;45.98
55424;BME280;41294;42.666;23.350;2024-02-21T11:47:24;95423.09;;;13.91;45.71
55424;BME280;41294;42.666;23.350;2024-02-21T11:49:50;95420.81;;;13.75;46.17
55424;BME280;41294;42.666;23.350;2024-02-21T11:52:22;95414.75;;;13.83;46.00
55424;BME280;41294;42.666;23.350;2024-02-21T11:54:50;95415.09;;;13.67;45.98
55424;BME280;41294;42.666;23.350;2024-02-21T11:57:17;95407.50;;;13.33;46.59
55424;BME280;41294;42.666;23.350;2024-02-21T11:59:44;95415.59;;;13.12;47.36
55424;BME280;41294;42.666;23.350;2024-02-21T12:02:10;95409.72;;;13.17;47.36
55424;BME280;41294;42.666;23.350;2024-02-21T12:04:36;95412.81;;;12.98;47.50
55424;BME280;41294;42.666;23.350;2024-02-21T12:07:01;95411.78;;;13.13;47.18
55424;BME280;41294;42.666;23.350;2024-02-21T12:09:29;95415.47;;;13.07;47.94
55424;BME280;41294;42.666;23.350;2024-02-21T12:12:02;95415.91;;;12.96;48.05
55424;BME280;41294;42.666;23.350;2024-02-21T12:14:32;95415.13;;;12.87;48.01
55424;BME280;41294;42.666;23.350;2024-02-21T12:17:01;95398.22;;;12.66;48.73
55424;BME280;41294;42.666;23.350;2024-02-21T12:19:30;95402.06;;;12.83;48.44
55424;BME280;41294;42.666;23.350;2024-02-21T12:21:56;95393.09;;;12.81;49.13
55424;BME280;41294;42.666;23.350;2024-02-21T12:26:53;95397.66;;;12.71;49.57
55424;BME280;41294;42.666;23.350;2024-02-21T12:29:19;95391.31;;;12.69;50.29
55424;BME280;41294;42.666;23.350;2024-02-21T12:31:45;95393.09;;;12.63;50.71
55424;BME280;41294;42.666;23.350;2024-02-21T12:34:11;95391.19;;;12.54;50.56
55424;BME280;41294;42.666;23.350;2024-02-21T12:36:41;95387.94;;;12.41;50.40
55424;BME280;41294;42.666;23.350;2024-02-21T12:39:10;95390.88;;;12.43;50.23
55424;BME280;41294;42.666;23.350;2024-02-21T12:41:37;95393.31;;;12.20;50.71
55424;BME280;41294;42.666;23.350;2024-02-21T12:44:10;95386.28;;;12.26;51.00
55424;BME280;41294;42.666;23.350;2024-02-21T12:46:37;95388.09;;;12.47;50.95
55424;BME280;41294;42.666;23.350;2024-02-21T12:49:04;95381.03;;;12.53;50.80
55424;BME280;41294;42.666;23.350;2024-02-21T12:51:30;95383.66;;;12.35;50.78
55424;BME280;41294;42.666;23.350;2024-02-21T12:53:56;95384.94;;;12.22;51.20
55424;BME280;41294;42.666;23.350;2024-02-21T12:56:22;95374.63;;;12.06;51.10